PAED METAR and TAF weather

Enter ICAO airport designator
Station Type Date Time Source
PAED METAR 2018/12/15 04:06 UTC NOAA

PAED 150406Z 04004KT 1/2SM R06/5000VP6000FT SN VV007 M10/M10 A2924 RMK AO2A CIG 005 RWY24 SLP901


Station Type Date Time Source
PAED Decoded METAR 2018/12/15 04:06 UTC NOAA

Anchorage, Elmendorf Air Force Base, AK, United States (PAED) 61-15-11N 149-47-38W 59M
Dec 14, 2018 - 11:06 PM EST / 2018.12.15 0406 UTC
Wind: from the NE (040 degrees) at 5 MPH (4 KT):0
Visibility: 1/2 mile(s):0
Sky conditions: obscured
Weather: snow
Temperature: 14 F (-10 C)
Windchill: 6 F (-14 C):1
Dew Point: 14 F (-10 C)
Relative Humidity: 100%
Pressure (altimeter): 29.24 in. Hg (990 hPa)
ob: PAED 150406Z 04004KT 1/2SM R06/5000VP6000FT SN VV007 M10/M10 A2924 RMK AO2A CIG 005 RWY24 SLP901
cycle: 4

Station Type Date Time Source
PAED TAF 2018/12/15 03:12 UTC NOAA

TAF TAF PAED 150300Z 1503/1609 05007KT 2600 -SN BR SCT003 OVC012 620116 QNH2923INS
TEMPO 1503/1509 03006KT 3200 -SN OVC015 620158
BECMG 1510/1511 03006KT 4800 -SN BR SCT015 OVC025 620255 QNH2920INS
BECMG 1512/1513 03006KT 9999 VCSH BKN030 OVC040 620304 QNH2922INS
BECMG 1600/1601 VRB06KT 9999 NSW SCT060 BKN080 QNH2920INS TXM09/1505Z TNM14/1515Z


Example: see airport list